createdAt,value
2019-02-15T00:03:11.945Z,5.56
2019-02-15T00:05:39.334Z,5.49
2019-02-15T00:08:06.792Z,5.29
2019-02-15T00:10:34.193Z,5.15
2019-02-15T00:13:01.597Z,4.76
2019-02-15T00:15:29.601Z,4.84
2019-02-15T00:20:49.161Z,5.31
2019-02-15T00:23:16.573Z,5.10
2019-02-15T00:25:44.032Z,4.99
2019-02-15T00:28:11.639Z,4.87
2019-02-15T00:30:39.030Z,4.83
2019-02-15T00:33:06.443Z,4.86
2019-02-15T00:35:33.858Z,4.85
2019-02-15T00:38:01.260Z,4.83
2019-02-15T00:40:28.672Z,4.80
2019-02-15T00:42:56.235Z,4.69
2019-02-15T00:45:23.663Z,4.76
2019-02-15T00:47:55.029Z,4.73
2019-02-15T00:50:37.299Z,4.63
2019-02-15T00:53:22.399Z,4.58
2019-02-15T00:55:49.803Z,4.41
2019-02-15T00:58:17.194Z,4.51
2019-02-15T01:00:55.166Z,4.58
2019-02-15T01:03:23.620Z,4.57
2019-02-15T01:05:56.673Z,4.52
2019-02-15T01:08:29.636Z,4.46
2019-02-15T01:10:57.075Z,4.48
2019-02-15T01:13:31.008Z,4.53
2019-02-15T01:15:51.959Z,4.48
2019-02-15T01:18:19.353Z,4.47
2019-02-15T01:20:46.751Z,4.50
2019-02-15T01:23:14.195Z,4.53
2019-02-15T01:25:41.602Z,4.49
2019-02-15T01:28:10.820Z,4.43
2019-02-15T01:30:46.852Z,4.35
2019-02-15T01:33:14.654Z,4.35
2019-02-15T01:35:42.413Z,4.35
2019-02-15T01:38:13.201Z,4.21
2019-02-15T01:40:43.327Z,4.10
2019-02-15T01:43:11.603Z,4.07
2019-02-15T01:45:39.534Z,4.06
2019-02-15T01:48:07.095Z,4.01
2019-02-15T01:50:34.495Z,4.00
2019-02-15T01:53:01.873Z,3.98
2019-02-15T01:55:30.058Z,3.97
2019-02-15T01:57:57.503Z,3.99
2019-02-15T02:00:24.908Z,3.98
2019-02-15T02:02:52.512Z,4.05
2019-02-15T02:05:19.899Z,4.18
2019-02-15T02:07:47.301Z,4.26
2019-02-15T02:10:14.700Z,4.33
2019-02-15T02:12:42.112Z,4.31
2019-02-15T02:15:09.522Z,4.15
2019-02-15T02:17:36.947Z,4.10
2019-02-15T02:20:04.371Z,4.09
2019-02-15T02:22:31.756Z,4.12
2019-02-15T02:24:59.189Z,4.16
2019-02-15T02:27:26.574Z,4.12
2019-02-15T02:29:53.975Z,4.00
2019-02-15T02:32:21.370Z,3.95
2019-02-15T02:34:48.763Z,3.96
2019-02-15T02:37:16.169Z,3.92
2019-02-15T02:39:43.598Z,3.85
2019-02-15T02:42:11.198Z,3.74
2019-02-15T02:44:38.614Z,3.77
2019-02-15T02:47:06.038Z,3.72
2019-02-15T02:49:33.442Z,3.76
2019-02-15T02:52:00.839Z,3.79
2019-02-15T02:54:28.263Z,3.82
2019-02-15T02:56:55.659Z,3.76
2019-02-15T02:59:23.064Z,3.69
2019-02-15T03:01:50.468Z,3.68
2019-02-15T03:04:17.889Z,3.69
2019-02-15T03:06:45.288Z,3.64
2019-02-15T03:09:12.679Z,3.69
2019-02-15T03:11:40.088Z,3.67
2019-02-15T03:14:11.455Z,3.61
2019-02-15T03:16:34.995Z,3.51
2019-02-15T03:19:02.412Z,3.54
2019-02-15T03:21:29.801Z,3.57
2019-02-15T03:23:57.213Z,3.68
2019-02-15T03:26:24.600Z,3.75
2019-02-15T03:28:51.995Z,3.81
2019-02-15T03:31:19.394Z,3.77
2019-02-15T03:33:46.804Z,3.75
2019-02-15T03:39:16.260Z,4.19
2019-02-15T03:41:43.743Z,3.99
2019-02-15T03:44:21.353Z,3.82
2019-02-15T03:46:38.756Z,3.76
2019-02-15T03:49:06.161Z,3.70
2019-02-15T03:51:33.595Z,3.60
2019-02-15T03:54:00.993Z,3.56
2019-02-15T03:56:28.402Z,3.52
2019-02-15T03:58:56.470Z,3.50
2019-02-15T04:01:23.870Z,3.51
2019-02-15T04:03:51.275Z,3.49
2019-02-15T04:06:18.666Z,3.52
2019-02-15T04:08:46.131Z,3.53
2019-02-15T04:11:13.544Z,3.49
2019-02-15T04:13:41.121Z,3.43
2019-02-15T04:16:08.530Z,3.37
2019-02-15T04:18:36.016Z,3.39
2019-02-15T04:21:03.486Z,3.40
2019-02-15T04:23:30.879Z,3.41
2019-02-15T04:25:58.283Z,3.39
2019-02-15T04:28:25.695Z,3.39
2019-02-15T04:30:53.127Z,3.42
2019-02-15T04:33:20.550Z,3.41
2019-02-15T04:35:48.027Z,3.36
2019-02-15T04:38:15.465Z,3.39
2019-02-15T04:40:42.872Z,3.36
2019-02-15T04:43:10.267Z,3.37
2019-02-15T04:45:37.715Z,3.34
2019-02-15T04:48:05.129Z,3.32
2019-02-15T04:50:32.529Z,3.22
2019-02-15T04:53:02.941Z,3.18
2019-02-15T04:55:27.443Z,3.16
2019-02-15T04:57:54.843Z,3.14
2019-02-15T05:00:22.275Z,3.18
2019-02-15T05:02:49.672Z,3.16
2019-02-15T05:05:17.071Z,3.18
2019-02-15T05:07:44.465Z,3.13
2019-02-15T05:10:11.924Z,3.15
2019-02-15T05:12:39.313Z,3.18
2019-02-15T05:15:06.707Z,3.22
2019-02-15T05:17:34.105Z,3.25
2019-02-15T05:20:01.887Z,3.25
2019-02-15T05:22:29.307Z,3.19
2019-02-15T05:24:56.744Z,3.14
2019-02-15T05:27:24.820Z,3.04
2019-02-15T05:29:52.305Z,3.00
2019-02-15T05:32:19.909Z,3.06
2019-02-15T05:34:47.303Z,3.13
2019-02-15T05:37:15.611Z,3.16
2019-02-15T05:39:43.016Z,3.13
2019-02-15T05:42:10.403Z,3.03
2019-02-15T05:44:37.853Z,3.01
2019-02-15T05:47:05.311Z,2.95
2019-02-15T05:49:32.714Z,2.93
2019-02-15T05:52:00.153Z,2.92
2019-02-15T05:54:27.611Z,2.94
2019-02-15T05:56:55.007Z,2.94
2019-02-15T05:59:22.402Z,2.94
2019-02-15T06:01:49.836Z,2.94
2019-02-15T06:04:17.224Z,2.99
2019-02-15T06:06:44.742Z,3.14
2019-02-15T06:09:12.192Z,3.36
2019-02-15T06:11:39.599Z,3.57
2019-02-15T06:14:07.121Z,3.71
2019-02-15T06:16:34.524Z,3.70
2019-02-15T06:19:01.992Z,3.43
2019-02-15T06:21:29.427Z,3.22
2019-02-15T06:23:57.065Z,3.39
2019-02-15T06:26:24.449Z,3.70
2019-02-15T06:28:51.887Z,3.71
2019-02-15T06:31:19.303Z,3.62
2019-02-15T06:33:46.722Z,3.58
2019-02-15T06:36:14.173Z,3.48
2019-02-15T06:38:41.578Z,3.40
2019-02-15T06:41:09.063Z,3.37
2019-02-15T06:43:36.489Z,3.60
2019-02-15T06:46:05.106Z,3.80
2019-02-15T06:48:32.643Z,3.72
2019-02-15T06:51:00.030Z,3.55
2019-02-15T06:53:27.435Z,3.35
2019-02-15T06:55:56.379Z,3.12
2019-02-15T06:58:23.790Z,3.29
2019-02-15T07:03:43.983Z,3.89
2019-02-15T07:06:12.291Z,4.15
2019-02-15T07:08:39.704Z,4.53
2019-02-15T07:11:07.105Z,4.39
2019-02-15T07:13:34.501Z,4.46
2019-02-15T07:16:01.941Z,4.50
2019-02-15T07:18:29.345Z,4.73
2019-02-15T07:20:56.743Z,5.07
2019-02-15T07:23:24.744Z,5.52
2019-02-15T07:25:52.144Z,5.88
2019-02-15T07:28:19.623Z,6.18
2019-02-15T07:30:47.005Z,6.28
2019-02-15T07:33:14.447Z,6.45
2019-02-15T07:35:41.852Z,6.67
2019-02-15T07:38:12.344Z,6.96
2019-02-15T07:40:39.903Z,7.25
2019-02-15T07:43:07.315Z,7.70
2019-02-15T07:45:42.628Z,8.31
2019-02-15T07:48:02.884Z,8.82
2019-02-15T07:50:30.310Z,9.36
2019-02-15T07:52:57.800Z,9.76
2019-02-15T07:55:25.325Z,10.04
2019-02-15T07:57:52.825Z,10.23
2019-02-15T08:00:21.136Z,10.72
2019-02-15T08:02:48.548Z,10.96
2019-02-15T08:05:15.999Z,11.16
2019-02-15T08:07:43.395Z,11.10
2019-02-15T08:10:10.812Z,10.85
2019-02-15T08:12:38.275Z,10.71
2019-02-15T08:15:05.685Z,10.86
2019-02-15T08:17:33.092Z,11.23
2019-02-15T08:20:00.560Z,11.67
2019-02-15T08:22:27.992Z,12.15
2019-02-15T08:24:55.993Z,12.54
2019-02-15T08:27:23.421Z,12.46
2019-02-15T08:29:50.816Z,12.30
2019-02-15T08:32:18.240Z,12.51
2019-02-15T08:34:45.643Z,13.15
2019-02-15T08:37:13.914Z,13.74
2019-02-15T08:39:40.645Z,14.10
2019-02-15T08:42:08.083Z,13.82
2019-02-15T08:44:35.527Z,13.61
2019-02-15T08:47:02.986Z,13.03
2019-02-15T08:49:30.644Z,12.32
2019-02-15T08:51:58.032Z,11.41
2019-02-15T08:54:25.470Z,11.19
2019-02-15T08:56:52.875Z,11.87
2019-02-15T08:59:20.319Z,12.65
2019-02-15T09:01:47.739Z,13.18
2019-02-15T09:04:15.197Z,13.88
2019-02-15T09:06:42.636Z,13.94
2019-02-15T09:09:10.897Z,13.84
2019-02-15T09:11:38.299Z,14.13
2019-02-15T09:14:05.731Z,14.31
2019-02-15T09:16:33.290Z,14.69
2019-02-15T09:19:00.682Z,15.18
2019-02-15T09:21:28.097Z,15.58
2019-02-15T09:23:55.491Z,15.97
2019-02-15T09:26:22.920Z,15.71
2019-02-15T09:28:50.326Z,15.72
2019-02-15T09:31:17.730Z,15.81
2019-02-15T09:33:45.164Z,16.18
2019-02-15T09:36:12.589Z,16.45
2019-02-15T09:38:40.007Z,16.41
2019-02-15T09:41:07.415Z,16.14
2019-02-15T09:43:34.831Z,16.15
2019-02-15T09:46:02.276Z,15.71
2019-02-15T09:48:30.254Z,15.48
2019-02-15T09:50:58.746Z,15.57
2019-02-15T09:53:26.164Z,15.83
2019-02-15T09:55:53.570Z,16.42
2019-02-15T09:58:21.014Z,16.89
2019-02-15T10:00:48.555Z,16.96
2019-02-15T10:03:15.899Z,17.04
2019-02-15T10:05:43.296Z,17.02
2019-02-15T10:08:10.822Z,16.56
2019-02-15T10:10:38.241Z,16.38
2019-02-15T10:13:05.635Z,16.26
2019-02-15T10:15:33.035Z,16.60
2019-02-15T10:18:00.451Z,17.02
2019-02-15T10:20:28.071Z,17.38
2019-02-15T10:22:55.468Z,17.53
2019-02-15T10:25:22.898Z,17.83
2019-02-15T10:27:50.301Z,17.99
2019-02-15T10:30:17.743Z,18.21
2019-02-15T10:32:45.159Z,18.44
2019-02-15T10:35:12.660Z,18.61
2019-02-15T10:37:40.125Z,18.71
2019-02-15T10:40:07.543Z,18.74
2019-02-15T10:42:34.976Z,18.43
2019-02-15T10:45:02.540Z,17.82
2019-02-15T10:47:29.946Z,17.89
2019-02-15T10:49:57.377Z,17.80
2019-02-15T10:52:24.823Z,17.86
2019-02-15T10:54:52.278Z,17.63
2019-02-15T10:57:19.749Z,17.41
2019-02-15T10:59:47.183Z,17.45
2019-02-15T11:02:14.587Z,17.65
2019-02-15T11:04:42.011Z,17.68
2019-02-15T11:07:09.423Z,17.92
2019-02-15T11:09:36.379Z,17.95
2019-02-15T11:12:03.306Z,18.05
2019-02-15T11:14:30.264Z,18.37
2019-02-15T11:16:57.261Z,18.84
2019-02-15T11:19:24.213Z,19.21
2019-02-15T11:21:51.155Z,19.53
2019-02-15T11:24:18.095Z,19.48
2019-02-15T11:26:45.054Z,19.88
2019-02-15T11:29:11.997Z,20.12
2019-02-15T11:31:39.782Z,20.49
2019-02-15T11:34:06.750Z,20.64
2019-02-15T11:36:33.755Z,20.47
2019-02-15T11:39:01.107Z,20.94
2019-02-15T11:41:28.047Z,21.39
2019-02-15T11:43:55.056Z,21.60
2019-02-15T11:46:22.046Z,21.72
2019-02-15T11:48:49.148Z,22.03
2019-02-15T11:51:16.130Z,22.37
2019-02-15T11:53:43.072Z,22.68
2019-02-15T11:56:10.010Z,22.98
2019-02-15T11:58:37.689Z,23.60
2019-02-15T12:01:05.099Z,24.05
2019-02-15T12:03:32.519Z,23.94
2019-02-15T12:05:59.964Z,23.81
2019-02-15T12:08:27.529Z,23.76
2019-02-15T12:10:54.951Z,24.03
2019-02-15T12:13:22.899Z,23.77
2019-02-15T12:15:50.359Z,23.70
2019-02-15T12:18:17.772Z,24.51
2019-02-15T12:20:45.188Z,25.07
2019-02-15T12:23:12.607Z,25.36
2019-02-15T12:25:40.058Z,25.86
2019-02-15T12:28:07.466Z,25.96
2019-02-15T12:30:34.935Z,25.40
2019-02-15T12:33:02.381Z,24.66
2019-02-15T12:35:29.958Z,24.51
2019-02-15T12:37:57.348Z,24.99
2019-02-15T12:40:24.746Z,25.62
2019-02-15T12:42:52.164Z,25.65
2019-02-15T12:45:19.683Z,25.63
2019-02-15T12:47:47.208Z,25.89
2019-02-15T12:50:15.335Z,25.37
2019-02-15T12:52:42.743Z,25.25
2019-02-15T12:55:10.642Z,25.63
2019-02-15T12:57:38.107Z,25.38
2019-02-15T13:00:06.340Z,25.32
2019-02-15T13:02:33.836Z,25.68
2019-02-15T13:05:01.249Z,26.18
2019-02-15T13:07:28.952Z,27.22
2019-02-15T13:09:57.119Z,28.16
2019-02-15T13:12:24.524Z,28.64
2019-02-15T13:14:51.947Z,29.10
2019-02-15T13:17:24.784Z,29.37
2019-02-15T13:19:46.834Z,29.55
2019-02-15T13:22:14.442Z,29.46
2019-02-15T13:24:43.242Z,29.42
2019-02-15T13:27:09.335Z,29.34
2019-02-15T13:29:36.836Z,30.00
2019-02-15T13:32:04.257Z,30.35
2019-02-15T13:34:31.698Z,30.16
2019-02-15T13:36:59.199Z,29.95
2019-02-15T13:39:27.254Z,29.71
2019-02-15T13:41:54.684Z,30.09
2019-02-15T13:44:22.083Z,30.76
2019-02-15T13:46:49.531Z,30.47
2019-02-15T13:49:16.958Z,30.60
2019-02-15T13:51:45.406Z,31.19
2019-02-15T13:54:12.810Z,30.85
2019-02-15T13:56:40.672Z,30.43
2019-02-15T13:59:07.806Z,30.24
2019-02-15T14:01:35.199Z,30.41
2019-02-15T14:04:02.647Z,30.34
2019-02-15T14:06:30.067Z,30.57
2019-02-15T14:08:57.539Z,31.06
2019-02-15T14:11:25.927Z,31.39
2019-02-15T14:13:54.314Z,31.68
2019-02-15T14:16:21.751Z,32.22
2019-02-15T14:18:49.219Z,32.60
2019-02-15T14:21:16.617Z,32.59
2019-02-15T14:23:44.089Z,32.58
2019-02-15T14:26:11.503Z,32.67
2019-02-15T14:28:38.916Z,32.61
2019-02-15T14:31:06.910Z,32.81
2019-02-15T14:33:34.309Z,33.16
2019-02-15T14:36:01.731Z,33.45
2019-02-15T14:38:29.183Z,33.55
2019-02-15T14:40:56.600Z,33.88
2019-02-15T14:43:24.055Z,34.51
2019-02-15T14:45:51.954Z,34.47
2019-02-15T14:48:20.140Z,34.60
2019-02-15T14:50:46.816Z,35.02
2019-02-15T14:53:14.242Z,35.33
2019-02-15T14:55:41.646Z,35.53
2019-02-15T14:58:09.257Z,35.71
2019-02-15T15:00:36.731Z,35.87
2019-02-15T15:03:04.083Z,36.40
2019-02-15T15:05:31.559Z,36.08
2019-02-15T15:07:58.975Z,36.19
2019-02-15T15:10:26.735Z,36.49
2019-02-15T15:12:54.664Z,36.29
2019-02-15T15:15:22.226Z,35.94
2019-02-15T15:17:50.137Z,36.21
2019-02-15T15:20:17.130Z,36.86
2019-02-15T15:22:44.553Z,37.36
2019-02-15T15:25:12.079Z,37.42
2019-02-15T15:27:39.655Z,37.53
2019-02-15T15:30:07.742Z,37.50
2019-02-15T15:32:35.182Z,37.69
2019-02-15T15:35:02.567Z,37.77
2019-02-15T15:37:30.014Z,37.60
2019-02-15T15:39:57.467Z,36.94
2019-02-15T15:42:24.906Z,36.73
2019-02-15T15:44:52.309Z,36.26
2019-02-15T15:47:19.780Z,35.76
2019-02-15T15:49:47.197Z,35.38
2019-02-15T15:52:14.660Z,35.23
2019-02-15T15:54:42.216Z,35.16
2019-02-15T15:57:09.739Z,35.28
2019-02-15T15:59:37.180Z,35.14
2019-02-15T16:02:04.697Z,34.26
2019-02-15T16:04:32.124Z,32.68
2019-02-15T16:06:59.531Z,31.83
2019-02-15T16:09:27.029Z,31.42
2019-02-15T16:11:54.535Z,30.97
2019-02-15T16:14:21.977Z,30.45
2019-02-15T16:16:49.415Z,30.12
2019-02-15T16:19:16.378Z,29.16
2019-02-15T16:21:44.485Z,25.03
2019-02-15T16:24:12.836Z,23.03
2019-02-15T16:26:38.662Z,23.33
2019-02-15T16:29:06.207Z,20.44
2019-02-15T16:31:33.661Z,18.32
2019-02-15T16:34:01.365Z,17.00
2019-02-15T16:36:28.764Z,16.12
2019-02-15T16:38:57.057Z,15.44
2019-02-15T16:41:24.485Z,14.84
2019-02-15T16:43:51.892Z,14.43
2019-02-15T16:46:19.295Z,14.02
2019-02-15T16:48:47.501Z,13.77
2019-02-15T16:51:14.970Z,13.59
2019-02-15T16:53:42.616Z,13.45
2019-02-15T16:56:10.043Z,13.21
2019-02-15T16:58:37.439Z,13.07
2019-02-15T17:01:04.858Z,12.95
2019-02-15T17:03:32.273Z,12.78
2019-02-15T17:05:59.708Z,12.62
2019-02-15T17:08:27.223Z,12.46
2019-02-15T17:10:54.642Z,12.32
2019-02-15T17:13:22.046Z,12.20
2019-02-15T17:15:49.454Z,12.13
2019-02-15T17:18:16.887Z,12.08
2019-02-15T17:20:44.309Z,12.07
2019-02-15T17:23:11.899Z,12.10
2019-02-15T17:25:39.302Z,12.11
2019-02-15T17:28:06.702Z,12.08
2019-02-15T17:30:34.138Z,12.02
2019-02-15T17:33:01.559Z,11.92
2019-02-15T17:35:28.972Z,11.83
2019-02-15T17:37:56.370Z,11.78
2019-02-15T17:40:23.773Z,11.69
2019-02-15T17:42:51.241Z,11.60
2019-02-15T17:45:18.803Z,11.51
2019-02-15T17:47:46.267Z,11.40
2019-02-15T17:50:13.671Z,11.36
2019-02-15T17:52:41.189Z,11.34
2019-02-15T17:55:09.415Z,11.25
2019-02-15T17:57:36.862Z,11.15
2019-02-15T18:00:04.259Z,10.98
2019-02-15T18:02:31.672Z,10.87
2019-02-15T18:04:59.292Z,10.80
2019-02-15T18:07:26.748Z,10.66
2019-02-15T18:09:54.155Z,10.65
2019-02-15T18:12:21.574Z,10.63
2019-02-15T18:14:48.973Z,10.61
2019-02-15T18:17:16.512Z,10.60
2019-02-15T18:19:47.242Z,10.60
2019-02-15T18:22:11.377Z,10.58
2019-02-15T18:24:38.784Z,10.58
2019-02-15T18:27:06.216Z,10.54
2019-02-15T18:29:33.655Z,10.55
2019-02-15T18:32:02.145Z,10.50
2019-02-15T18:34:29.587Z,10.52
2019-02-15T18:36:56.979Z,10.47
2019-02-15T18:39:24.404Z,10.40
2019-02-15T18:41:51.831Z,10.32
2019-02-15T18:44:19.259Z,10.30
2019-02-15T18:46:46.659Z,10.28
2019-02-15T18:49:19.403Z,10.24
2019-02-15T18:51:41.798Z,10.18
2019-02-15T18:54:09.247Z,10.09
2019-02-15T18:56:36.786Z,9.98
2019-02-15T18:59:04.350Z,9.83
2019-02-15T19:01:31.837Z,9.83
2019-02-15T19:03:59.243Z,9.78
2019-02-15T19:06:26.680Z,9.73
2019-02-15T19:08:54.137Z,9.63
2019-02-15T19:11:21.608Z,9.52
2019-02-15T19:13:49.031Z,9.45
2019-02-15T19:16:16.509Z,9.39
2019-02-15T19:18:43.944Z,9.29
2019-02-15T19:21:11.483Z,9.20
2019-02-15T19:23:38.887Z,9.17
2019-02-15T19:26:06.374Z,9.18
2019-02-15T19:28:34.772Z,9.15
2019-02-15T19:31:02.190Z,9.12
2019-02-15T19:33:29.625Z,9.03
2019-02-15T19:35:57.026Z,9.02
2019-02-15T19:38:24.536Z,8.98
2019-02-15T19:40:52.086Z,8.95
2019-02-15T19:43:19.504Z,8.89
2019-02-15T19:45:46.930Z,8.84
2019-02-15T19:48:14.369Z,8.79
2019-02-15T19:50:41.785Z,8.81
2019-02-15T19:53:09.280Z,8.76
2019-02-15T19:55:36.722Z,8.72
2019-02-15T19:58:04.269Z,8.73
2019-02-15T20:00:31.715Z,8.75
2019-02-15T20:02:59.210Z,8.66
2019-02-15T20:05:26.639Z,8.59
2019-02-15T20:07:54.251Z,8.56
2019-02-15T20:10:21.652Z,8.52
2019-02-15T20:12:49.122Z,8.46
2019-02-15T20:15:16.511Z,8.44
2019-02-15T20:17:44.013Z,8.42
2019-02-15T20:20:12.285Z,8.40
2019-02-15T20:22:39.760Z,8.43
2019-02-15T20:25:07.275Z,8.43
2019-02-15T20:27:34.892Z,8.36
2019-02-15T20:30:03.445Z,8.27
2019-02-15T20:32:29.794Z,8.30
2019-02-15T20:34:57.232Z,8.30
2019-02-15T20:37:24.614Z,8.36
2019-02-15T20:39:52.122Z,8.39
2019-02-15T20:42:19.591Z,8.42
2019-02-15T20:44:47.021Z,8.45
2019-02-15T20:47:15.162Z,8.44
2019-02-15T20:49:42.931Z,8.33
2019-02-15T20:52:10.335Z,8.22
2019-02-15T20:54:38.690Z,8.13
2019-02-15T20:57:06.127Z,8.07
2019-02-15T20:59:33.573Z,8.01
2019-02-15T21:02:01.023Z,8.00
2019-02-15T21:04:28.463Z,8.03
2019-02-15T21:06:55.889Z,7.96
2019-02-15T21:09:23.291Z,7.89
2019-02-15T21:11:50.748Z,7.79
2019-02-15T21:14:18.224Z,7.77
2019-02-15T21:16:45.679Z,7.77
2019-02-15T21:19:13.114Z,7.68
2019-02-15T21:21:40.646Z,7.53
2019-02-15T21:24:08.074Z,7.40
2019-02-15T21:26:35.514Z,7.29
2019-02-15T21:29:02.967Z,7.30
2019-02-15T21:31:30.360Z,7.33
2019-02-15T21:33:57.793Z,7.28
2019-02-15T21:36:25.194Z,7.15
2019-02-15T21:38:53.427Z,7.02
2019-02-15T21:41:20.836Z,6.93
2019-02-15T21:43:48.234Z,6.90
2019-02-15T21:46:15.658Z,6.95
2019-02-15T21:48:43.051Z,6.86
2019-02-15T21:51:10.523Z,6.77
2019-02-15T21:53:37.961Z,6.69
2019-02-15T21:56:05.472Z,6.66
2019-02-15T21:58:32.878Z,6.74
2019-02-15T22:01:01.476Z,6.74
2019-02-15T22:03:27.800Z,6.75
2019-02-15T22:05:55.220Z,6.69
2019-02-15T22:08:22.705Z,6.74
2019-02-15T22:10:50.144Z,6.69
2019-02-15T22:13:17.582Z,6.71
2019-02-15T22:15:45.260Z,6.61
2019-02-15T22:18:12.678Z,6.66
2019-02-15T22:20:40.177Z,6.78
2019-02-15T22:23:07.599Z,6.79
2019-02-15T22:25:34.998Z,6.85
2019-02-15T22:28:02.411Z,6.71
2019-02-15T22:30:29.804Z,6.21
2019-02-15T22:32:57.289Z,5.97
2019-02-15T22:35:24.714Z,6.09
2019-02-15T22:37:52.091Z,6.21
2019-02-15T22:40:28.689Z,6.36
2019-02-15T22:42:56.115Z,6.38
2019-02-15T22:45:23.529Z,6.38
2019-02-15T22:47:51.711Z,6.14
2019-02-15T22:50:19.283Z,6.11
2019-02-15T22:52:46.835Z,6.15
2019-02-15T22:55:15.003Z,6.11
2019-02-15T22:57:42.408Z,6.07
2019-02-15T23:00:16.323Z,6.10
2019-02-15T23:02:43.893Z,6.09
2019-02-15T23:05:11.399Z,6.03
2019-02-15T23:07:39.863Z,6.02
2019-02-15T23:10:07.283Z,6.03
2019-02-15T23:12:34.684Z,6.02
2019-02-15T23:15:02.101Z,6.08
2019-02-15T23:17:29.499Z,6.10
2019-02-15T23:19:56.895Z,5.92
2019-02-15T23:22:24.418Z,5.83
2019-02-15T23:24:51.877Z,5.92
2019-02-15T23:27:19.310Z,5.88
2019-02-15T23:29:47.043Z,5.90
2019-02-15T23:32:14.244Z,5.90
2019-02-15T23:34:41.660Z,5.94
2019-02-15T23:37:09.062Z,5.81
2019-02-15T23:39:36.459Z,5.76
2019-02-15T23:42:03.867Z,5.77
2019-02-15T23:44:31.294Z,5.76
2019-02-15T23:46:58.750Z,5.74
2019-02-15T23:49:26.166Z,5.74
2019-02-15T23:51:53.706Z,5.68
2019-02-15T23:54:21.105Z,5.71
2019-02-15T23:56:48.503Z,5.66
2019-02-15T23:59:15.935Z,5.64
